Time;durP1;ratioP1;P1;durP2;ratioP2;P2;SDS_P1;SDS_P2;PMS_P1;PMS_P2;Temp;Humidity;BMP_temperature;BMP_pressure;BME280_temperature;BME280_humidity;BME280_pressure;Samples;Min_cycle;Max_cycle;Signal;HPM_P1;HPM_P2
2022/05/17 00:01:54;;;;;;;17.67;9.65;;;13.00;96.30;;;;;;5005124;28;20072;-74
2022/05/17 00:04:20;;;;;;;18.33;10.63;;;13.00;96.30;;;;;;5000953;28;20061;-74
2022/05/17 00:06:46;;;;;;;20.85;10.02;;;13.00;96.30;;;;;;4999948;28;20397;-75
2022/05/17 00:09:12;;;;;;;23.42;11.68;;;13.00;96.40;;;;;;5001770;28;20420;-74
2022/05/17 00:11:37;;;;;;;15.98;9.60;;;13.00;96.30;;;;;;5041495;28;20029;-76
2022/05/17 00:14:04;;;;;;;19.08;11.40;;;13.00;96.40;;;;;;5002403;28;20037;-75
2022/05/17 00:16:31;;;;;;;17.60;9.93;;;12.90;96.50;;;;;;5002452;28;20030;-74
2022/05/17 00:18:57;;;;;;;20.17;9.88;;;12.90;96.50;;;;;;5008323;28;20038;-75
2022/05/17 00:21:22;;;;;;;20.83;9.85;;;12.90;96.40;;;;;;5001549;28;20040;-74
2022/05/17 00:23:49;;;;;;;18.95;10.43;;;13.00;96.30;;;;;;5007185;28;20049;-74
2022/05/17 00:26:15;;;;;;;16.33;9.05;;;13.00;96.30;;;;;;5007637;28;20041;-74
2022/05/17 00:28:42;;;;;;;19.17;9.52;;;13.00;96.30;;;;;;5006066;28;20034;-75
2022/05/17 00:31:09;;;;;;;17.63;9.43;;;13.00;96.30;;;;;;5010775;28;20033;-73
2022/05/17 00:33:35;;;;;;;21.27;10.27;;;12.90;96.30;;;;;;5007237;28;20125;-76
2022/05/17 00:36:01;;;;;;;20.92;10.57;;;12.90;96.20;;;;;;5008413;28;20105;-74
2022/05/17 00:38:27;;;;;;;26.00;12.13;;;12.80;96.40;;;;;;5001832;28;20093;-74
2022/05/17 00:40:53;;;;;;;18.63;10.98;;;12.80;96.40;;;;;;5005675;28;20029;-74
2022/05/17 00:46:32;;;;;;;16.75;9.27;;;12.80;96.70;;;;;;5012506;28;20538;-74
2022/05/17 00:48:59;;;;;;;17.65;9.70;;;12.80;96.70;;;;;;5007511;28;20036;-74
2022/05/17 00:51:28;;;;;;;21.35;10.65;;;12.80;96.60;;;;;;5005655;28;20033;-74
2022/05/17 00:54:07;;;;;;;19.70;10.90;;;12.70;96.40;;;;;;5006429;28;20469;-73
2022/05/17 00:56:38;;;;;;;18.95;10.95;;;12.70;96.40;;;;;;4997251;28;20038;-74
2022/05/17 00:59:07;;;;;;;18.40;9.88;;;12.70;96.50;;;;;;5005951;28;20026;-76
2022/05/17 01:01:33;;;;;;;16.67;9.68;;;12.60;96.60;;;;;;5005934;28;20046;-75
2022/05/17 01:04:20;;;;;;;13.30;7.72;;;12.70;96.60;;;;;;5004975;28;20041;-74
2022/05/17 01:06:50;;;;;;;15.00;8.02;;;12.60;96.50;;;;;;5021993;28;20030;-74
2022/05/17 01:09:16;;;;;;;20.25;8.50;;;12.60;96.20;;;;;;5002384;28;20633;-74
2022/05/17 01:11:42;;;;;;;17.98;9.32;;;12.60;96.20;;;;;;5008708;28;20037;-74
2022/05/17 01:16:54;;;;;;;19.45;9.98;;;12.50;96.10;;;;;;5005422;28;20080;-73
2022/05/17 01:19:19;;;;;;;15.65;9.57;;;12.40;96.50;;;;;;5002318;28;20030;-73
2022/05/17 01:21:45;;;;;;;17.98;10.10;;;12.40;96.60;;;;;;4979449;28;1131758;-72
2022/05/17 01:24:11;;;;;;;15.45;9.40;;;12.40;96.70;;;;;;5007341;28;20455;-74
2022/05/17 01:26:43;;;;;;;18.27;10.52;;;12.30;96.50;;;;;;5007028;28;20057;-74
2022/05/17 01:29:11;;;;;;;14.48;8.63;;;12.30;96.50;;;;;;4999220;28;20125;-74
2022/05/17 01:31:38;;;;;;;18.92;9.32;;;12.20;96.70;;;;;;5001245;28;20069;-74
2022/05/17 01:34:10;;;;;;;17.30;9.50;;;12.30;96.70;;;;;;5028616;28;20029;-74
2022/05/17 01:36:37;;;;;;;14.73;8.93;;;12.30;96.70;;;;;;5007625;28;20025;-75
2022/05/17 01:39:04;;;;;;;16.23;9.70;;;12.30;96.60;;;;;;5008698;28;20084;-74
2022/05/17 01:41:30;;;;;;;16.70;9.57;;;12.30;96.60;;;;;;5037567;28;20057;-74
2022/05/17 01:43:56;;;;;;;19.05;10.13;;;12.30;96.80;;;;;;5004671;28;20034;-74
2022/05/17 01:46:22;;;;;;;21.55;12.27;;;12.20;96.80;;;;;;5006821;28;20033;-74
2022/05/17 01:48:48;;;;;;;20.48;10.82;;;12.20;96.90;;;;;;5005977;28;20034;-74
2022/05/17 01:51:14;;;;;;;19.33;9.50;;;12.20;97.30;;;;;;4999263;28;20030;-73
2022/05/17 01:53:39;;;;;;;16.35;10.30;;;12.20;97.30;;;;;;5003072;28;20037;-77
2022/05/17 01:56:07;;;;;;;18.58;10.68;;;12.30;97.40;;;;;;5005080;28;20095;-74
2022/05/17 01:58:33;;;;;;;17.52;9.82;;;12.30;97.30;;;;;;5036693;28;20064;-74
2022/05/17 02:00:59;;;;;;;19.25;11.68;;;12.30;97.20;;;;;;5037435;28;20160;-74
2022/05/17 02:03:25;;;;;;;16.65;8.85;;;12.30;97.10;;;;;;5002850;28;20051;-74
2022/05/17 02:05:51;;;;;;;21.65;11.77;;;12.30;97.10;;;;;;5035355;28;20053;-74
2022/05/17 02:08:18;;;;;;;18.05;10.93;;;12.30;97.00;;;;;;5000340;28;20045;-74
2022/05/17 02:10:44;;;;;;;17.60;9.43;;;12.20;97.00;;;;;;5034275;28;20478;-74
2022/05/17 02:13:10;;;;;;;21.35;11.38;;;12.20;97.10;;;;;;5005294;28;20531;-74
2022/05/17 02:15:36;;;;;;;18.50;9.75;;;12.10;96.70;;;;;;5006534;28;20030;-74
2022/05/17 02:18:02;;;;;;;19.15;9.43;;;12.00;96.60;;;;;;5002346;28;20041;-75
2022/05/17 02:20:28;;;;;;;17.48;9.52;;;12.00;97.10;;;;;;5007575;28;20030;-74
2022/05/17 02:22:54;;;;;;;14.77;9.93;;;12.00;97.20;;;;;;5004242;28;20480;-74
2022/05/17 02:25:19;;;;;;;15.93;10.05;;;11.90;97.20;;;;;;5006590;28;20088;-74
2022/05/17 02:27:45;;;;;;;17.40;11.23;;;11.90;97.20;;;;;;5004164;28;20030;-74
2022/05/17 02:30:12;;;;;;;17.65;10.23;;;11.90;97.20;;;;;;5007516;28;20033;-73
2022/05/17 02:32:38;;;;;;;15.52;9.90;;;11.90;97.30;;;;;;5004310;28;20067;-76
2022/05/17 02:35:06;;;;;;;12.00;8.88;;;12.00;97.30;;;;;;5003629;28;20026;-73
2022/05/17 02:37:32;;;;;;;15.55;9.52;;;12.00;97.20;;;;;;5005607;28;20437;-73
2022/05/17 02:39:57;;;;;;;17.15;10.00;;;12.00;96.90;;;;;;5005515;28;20061;-74
2022/05/17 02:42:23;;;;;;;17.30;10.00;;;11.90;97.00;;;;;;5002007;28;20034;-74
2022/05/17 02:44:48;;;;;;;18.45;10.85;;;11.90;97.10;;;;;;5000330;28;20729;-75
2022/05/17 02:47:14;;;;;;;19.23;10.95;;;11.90;97.20;;;;;;5006187;28;20041;-75
2022/05/17 02:49:44;;;;;;;19.02;10.80;;;11.90;97.20;;;;;;5002539;28;20026;-75
2022/05/17 02:52:11;;;;;;;16.73;11.52;;;11.90;97.20;;;;;;5002192;28;20085;-74
2022/05/17 02:54:37;;;;;;;19.63;12.18;;;11.90;97.30;;;;;;5034593;28;20412;-75
2022/05/17 02:57:04;;;;;;;16.95;10.32;;;12.00;97.40;;;;;;5005441;28;20037;-73
2022/05/17 02:59:30;;;;;;;18.83;11.25;;;12.00;97.40;;;;;;4998540;28;20057;-73
2022/05/17 03:01:56;;;;;;;18.80;10.25;;;12.00;97.40;;;;;;5002920;28;20034;-74
2022/05/17 03:04:21;;;;;;;15.52;10.50;;;11.90;96.80;;;;;;5002585;28;20041;-73
2022/05/17 03:06:47;;;;;;;18.50;10.55;;;11.90;97.00;;;;;;5003264;28;20480;-74
2022/05/17 03:09:13;;;;;;;21.83;12.25;;;11.90;97.10;;;;;;5005385;28;20026;-75
2022/05/17 03:11:43;;;;;;;19.73;11.15;;;11.90;97.10;;;;;;5018329;28;20559;-74
2022/05/17 03:14:10;;;;;;;16.42;10.85;;;11.90;97.30;;;;;;5004205;28;20034;-74
2022/05/17 03:16:35;;;;;;;16.88;10.57;;;11.90;97.20;;;;;;5019197;28;20038;-74
2022/05/17 03:19:02;;;;;;;15.75;10.40;;;11.90;96.90;;;;;;5000716;28;20366;-74
2022/05/17 03:21:28;;;;;;;15.68;9.45;;;11.90;96.80;;;;;;5037731;28;20030;-74
2022/05/17 03:23:54;;;;;;;14.90;8.57;;;11.80;96.60;;;;;;5005219;28;20065;-73
2022/05/17 03:26:20;;;;;;;14.90;9.10;;;11.80;96.70;;;;;;5003092;28;20435;-74
2022/05/17 03:28:46;;;;;;;13.23;7.90;;;11.80;96.80;;;;;;4999142;28;20034;-73
2022/05/17 03:31:12;;;;;;;18.17;9.63;;;11.80;96.90;;;;;;5032719;28;20496;-73
2022/05/17 03:33:38;;;;;;;21.65;10.00;;;11.70;96.90;;;;;;5004425;28;20036;-74
2022/05/17 03:36:08;;;;;;;18.23;10.80;;;11.70;97.00;;;;;;5023501;28;20026;-73
2022/05/17 03:38:34;;;;;;;19.60;11.07;;;11.70;97.10;;;;;;5004275;28;20080;-72
2022/05/17 03:41:00;;;;;;;22.20;10.98;;;11.70;97.10;;;;;;5001294;28;20021;-73
2022/05/17 03:43:28;;;;;;;19.42;9.70;;;11.70;97.10;;;;;;5022553;28;20038;-73
2022/05/17 03:45:54;;;;;;;19.60;10.88;;;11.70;97.20;;;;;;5026214;28;20037;-73
2022/05/17 03:48:20;;;;;;;21.00;10.63;;;11.60;97.10;;;;;;5001798;28;20034;-73
2022/05/17 03:50:46;;;;;;;21.20;10.77;;;11.60;97.40;;;;;;5006442;28;20033;-73
2022/05/17 03:53:12;;;;;;;19.33;10.25;;;11.60;97.10;;;;;;5005679;28;20034;-74
2022/05/17 03:55:38;;;;;;;17.25;9.18;;;11.60;97.10;;;;;;5035608;28;20064;-73
2022/05/17 03:58:04;;;;;;;16.52;9.95;;;11.60;97.30;;;;;;5005000;28;20061;-73
2022/05/17 04:00:30;;;;;;;21.95;11.45;;;11.60;97.20;;;;;;5003493;28;20427;-73
2022/05/17 04:02:55;;;;;;;18.17;10.55;;;11.70;97.10;;;;;;5006118;28;20041;-74
2022/05/17 04:05:21;;;;;;;20.25;10.90;;;11.70;97.10;;;;;;5007067;28;20822;-72
2022/05/17 04:07:47;;;;;;;14.82;9.77;;;11.70;97.30;;;;;;5009093;28;20062;-73
2022/05/17 04:10:14;;;;;;;17.50;9.77;;;11.70;97.30;;;;;;5008207;28;20050;-73
2022/05/17 04:12:40;;;;;;;17.23;9.82;;;11.70;97.40;;;;;;5008229;28;20038;-73
2022/05/17 04:15:09;;;;;;;18.15;10.32;;;11.70;97.30;;;;;;5006597;28;20029;-73
2022/05/17 04:17:34;;;;;;;18.05;10.77;;;11.70;97.30;;;;;;5010340;28;20091;-73
2022/05/17 04:20:00;;;;;;;17.50;9.85;;;11.70;97.30;;;;;;5007837;28;20056;-76
2022/05/17 04:22:26;;;;;;;14.75;9.45;;;11.70;97.40;;;;;;5032919;28;20442;-73
2022/05/17 04:24:58;;;;;;;26.70;12.75;;;11.60;97.50;;;;;;5008963;28;20467;-73
2022/05/17 04:27:25;;;;;;;17.98;10.73;;;11.60;97.50;;;;;;5007895;28;20030;-73
2022/05/17 04:29:51;;;;;;;16.48;10.38;;;11.60;97.50;;;;;;5008207;28;20037;-73
2022/05/17 04:32:18;;;;;;;20.77;11.65;;;11.60;97.50;;;;;;5006799;28;20519;-74
2022/05/17 04:34:44;;;;;;;20.40;11.05;;;11.70;97.50;;;;;;5006747;28;20088;-73
2022/05/17 04:37:11;;;;;;;18.23;10.45;;;11.60;97.40;;;;;;5024938;28;20068;-74
2022/05/17 04:39:37;;;;;;;16.55;10.38;;;11.60;97.30;;;;;;5009301;28;20033;-72
2022/05/17 04:42:03;;;;;;;19.52;11.23;;;11.60;97.30;;;;;;5003989;28;20399;-75
2022/05/17 04:44:29;;;;;;;16.42;10.65;;;11.60;97.30;;;;;;5008217;28;20092;-76
2022/05/17 04:46:54;;;;;;;15.20;10.23;;;11.60;97.30;;;;;;5002493;28;20027;-76
2022/05/17 04:49:20;;;;;;;16.90;10.18;;;11.50;97.30;;;;;;4994780;28;20045;-74
2022/05/17 04:51:49;;;;;;;18.38;10.38;;;11.50;97.20;;;;;;5005735;28;20476;-75
2022/05/17 04:54:15;;;;;;;21.55;11.70;;;11.60;97.10;;;;;;5006309;28;20488;-74
2022/05/17 04:56:40;;;;;;;17.42;11.20;;;11.50;97.10;;;;;;5006113;28;20065;-74
2022/05/17 04:59:07;;;;;;;20.05;10.57;;;11.50;97.20;;;;;;5009296;28;20091;-74
2022/05/17 05:01:32;;;;;;;15.25;10.48;;;11.50;97.40;;;;;;5004958;28;20595;-74
2022/05/17 05:03:58;;;;;;;16.15;9.35;;;11.50;97.50;;;;;;5036382;28;20080;-74
2022/05/17 05:06:27;;;;;;;15.70;9.88;;;11.60;97.60;;;;;;5004234;28;20409;-75
2022/05/17 05:08:53;;;;;;;19.42;10.35;;;11.60;97.50;;;;;;5006454;28;20061;-76
2022/05/17 05:11:18;;;;;;;18.00;11.10;;;11.60;97.30;;;;;;5005391;28;20057;-74
2022/05/17 05:13:44;;;;;;;19.00;11.43;;;11.60;97.20;;;;;;5004114;28;20034;-75
2022/05/17 05:16:11;;;;;;;25.00;11.98;;;11.50;97.10;;;;;;5005238;28;20057;-75
2022/05/17 05:18:37;;;;;;;32.67;12.38;;;11.60;97.20;;;;;;5002971;28;20026;-74
2022/05/17 05:21:11;;;;;;;27.95;13.30;;;11.50;97.10;;;;;;5008473;28;20542;-75
2022/05/17 05:23:39;;;;;;;36.97;14.85;;;11.50;97.20;;;;;;5001212;28;20038;-75
2022/05/17 05:26:05;;;;;;;41.25;17.75;;;11.50;97.40;;;;;;5005594;28;20060;-74
2022/05/17 05:28:32;;;;;;;25.73;13.80;;;11.50;97.40;;;;;;5006960;28;20026;-76
2022/05/17 05:30:58;;;;;;;24.55;13.93;;;11.50;97.70;;;;;;5004317;28;20061;-76
2022/05/17 05:33:24;;;;;;;23.95;14.73;;;11.50;97.90;;;;;;5009838;28;20064;-75
2022/05/17 05:35:52;;;;;;;27.08;14.80;;;11.70;97.90;;;;;;5004532;28;20808;-75
2022/05/17 05:38:18;;;;;;;26.52;15.27;;;11.70;97.90;;;;;;5022964;28;20044;-75
2022/05/17 05:40:44;;;;;;;24.25;15.30;;;11.90;97.90;;;;;;5007853;28;20092;-76
2022/05/17 05:43:10;;;;;;;25.30;14.73;;;11.90;97.70;;;;;;5016942;28;20112;-74
2022/05/17 05:45:36;;;;;;;20.90;13.13;;;12.00;97.70;;;;;;5006833;28;20061;-75
2022/05/17 05:48:02;;;;;;;21.45;13.88;;;12.10;97.50;;;;;;5005422;28;20488;-74
2022/05/17 05:50:28;;;;;;;20.30;13.32;;;12.20;97.40;;;;;;5019381;28;20136;-74
2022/05/17 05:53:05;;;;;;;20.42;13.60;;;12.20;97.40;;;;;;5007966;28;20037;-74
2022/05/17 05:55:32;;;;;;;19.00;12.95;;;12.20;97.70;;;;;;5004467;28;20026;-74
2022/05/17 05:57:58;;;;;;;21.27;13.35;;;12.30;97.50;;;;;;5003214;28;20034;-74
2022/05/17 06:00:24;;;;;;;23.50;14.10;;;12.30;97.30;;;;;;5005447;28;20111;-74
2022/05/17 06:02:50;;;;;;;24.80;13.40;;;12.40;97.40;;;;;;5002851;28;20105;-74
2022/05/17 06:05:17;;;;;;;19.67;11.55;;;12.40;97.30;;;;;;5001171;28;20473;-73
2022/05/17 06:07:42;;;;;;;22.55;12.52;;;12.50;97.10;;;;;;5013999;28;20029;-74
2022/05/17 06:10:10;;;;;;;18.45;10.82;;;12.40;97.00;;;;;;5009072;28;20128;-74
2022/05/17 06:12:35;;;;;;;19.40;10.43;;;12.50;97.10;;;;;;5007956;28;20420;-75
2022/05/17 06:15:01;;;;;;;20.35;11.20;;;12.40;97.00;;;;;;5007640;28;20030;-74
2022/05/17 06:17:29;;;;;;;18.65;10.90;;;12.50;97.10;;;;;;5006048;28;20041;-73
2022/05/17 06:19:57;;;;;;;16.52;11.02;;;12.50;97.00;;;;;;5020512;28;20108;-73
2022/05/17 06:22:23;;;;;;;17.08;11.30;;;12.60;96.80;;;;;;5038373;28;20045;-74
2022/05/17 06:24:49;;;;;;;18.88;10.93;;;12.70;97.00;;;;;;5004071;28;20132;-73
2022/05/17 06:27:15;;;;;;;17.30;10.77;;;12.80;96.90;;;;;;5000543;28;20045;-75
2022/05/17 06:29:40;;;;;;;17.90;12.88;;;12.90;96.90;;;;;;5006847;28;20018;-75
2022/05/17 06:32:14;;;;;;;18.83;12.27;;;13.00;97.30;;;;;;5002372;28;20069;-74
2022/05/17 06:34:42;;;;;;;18.20;12.40;;;13.20;97.60;;;;;;5002802;28;20037;-73
2022/05/17 06:37:08;;;;;;;17.58;12.65;;;13.40;97.30;;;;;;5004831;28;20536;-75
2022/05/17 06:39:35;;;;;;;19.00;13.00;;;13.60;97.20;;;;;;5002834;28;20037;-74
2022/05/17 06:42:02;;;;;;;20.10;13.15;;;13.70;96.70;;;;;;5018310;28;20030;-74
2022/05/17 06:44:28;;;;;;;19.27;12.98;;;13.90;96.50;;;;;;5001050;28;20041;-74
2022/05/17 06:46:54;;;;;;;17.75;13.18;;;13.90;96.00;;;;;;5004728;28;20022;-75
2022/05/17 06:49:21;;;;;;;17.83;12.43;;;14.00;96.10;;;;;;5029428;28;20416;-73
2022/05/17 06:51:48;;;;;;;14.80;9.95;;;14.20;96.30;;;;;;5007331;28;20523;-75
2022/05/17 06:54:14;;;;;;;16.95;11.70;;;14.50;96.30;;;;;;5008302;28;20026;-74
2022/05/17 06:56:39;;;;;;;16.25;10.52;;;14.60;95.70;;;;;;4997147;28;20072;-73
2022/05/17 06:59:06;;;;;;;13.10;8.73;;;14.90;95.80;;;;;;4999968;28;20042;-74
2022/05/17 07:01:32;;;;;;;14.05;8.52;;;15.30;94.40;;;;;;5000928;28;20109;-74
2022/05/17 07:03:59;;;;;;;13.55;7.50;;;15.80;93.00;;;;;;4997281;28;20084;-75
2022/05/17 07:06:25;;;;;;;10.88;7.38;;;16.20;92.10;;;;;;5000281;28;20037;-77
2022/05/17 07:08:51;;;;;;;10.73;6.93;;;16.30;91.30;;;;;;5001699;28;20370;-74
2022/05/17 07:14:01;;;;;;;13.02;7.57;;;16.10;91.70;;;;;;5002791;28;20168;-74
2022/05/17 07:16:26;;;;;;;10.10;6.85;;;16.20;91.70;;;;;;5003511;28;20100;-75
2022/05/17 07:18:52;;;;;;;12.63;7.88;;;16.20;91.70;;;;;;4999947;28;20475;-73
2022/05/17 07:21:17;;;;;;;13.15;7.28;;;16.30;91.80;;;;;;5006154;28;20022;-75
2022/05/17 07:23:44;;;;;;;10.18;7.53;;;16.40;91.60;;;;;;4988753;28;20053;-74
2022/05/17 07:26:13;;;;;;;9.93;6.80;;;16.50;91.80;;;;;;4988448;28;20496;-74
2022/05/17 07:28:45;;;;;;;9.40;6.38;;;16.50;91.40;;;;;;4989083;28;20045;-74
2022/05/17 07:31:11;;;;;;;11.38;6.97;;;16.60;90.90;;;;;;5001296;28;20069;-74
2022/05/17 07:33:38;;;;;;;10.50;6.20;;;16.70;91.00;;;;;;5002566;28;20029;-73
2022/05/17 07:36:05;;;;;;;10.00;6.00;;;16.80;91.20;;;;;;5008261;28;20057;-74
2022/05/17 07:38:31;;;;;;;9.50;6.05;;;17.10;91.50;;;;;;5008073;28;20854;-75
2022/05/17 07:40:57;;;;;;;12.38;6.35;;;17.20;90.90;;;;;;5010804;28;20030;-74
2022/05/17 07:43:23;;;;;;;8.90;5.82;;;17.30;90.40;;;;;;5011905;28;20041;-75
2022/05/17 07:45:52;;;;;;;11.48;6.05;;;17.50;90.00;;;;;;5008328;28;20057;-76
2022/05/17 07:48:19;;;;;;;11.23;5.90;;;17.60;89.10;;;;;;5021731;28;20033;-73
2022/05/17 07:50:46;;;;;;;7.85;4.82;;;17.70;88.80;;;;;;5007025;28;20037;-74
2022/05/17 07:53:14;;;;;;;10.38;5.75;;;17.80;89.50;;;;;;5004524;28;20500;-73
2022/05/17 07:55:41;;;;;;;8.32;4.78;;;17.90;88.20;;;;;;5010850;28;20026;-74
2022/05/17 07:58:07;;;;;;;9.98;4.82;;;18.10;86.90;;;;;;5009165;28;20156;-74
2022/05/17 08:00:34;;;;;;;8.05;5.10;;;18.20;88.10;;;;;;5011072;28;20034;-73
2022/05/17 08:03:00;;;;;;;7.72;4.55;;;18.40;88.70;;;;;;5010190;28;20030;-74
2022/05/17 08:05:27;;;;;;;9.05;4.30;;;18.60;87.40;;;;;;5011232;28;20030;-74
2022/05/17 08:07:53;;;;;;;8.27;4.15;;;18.80;85.50;;;;;;5009879;28;20125;-74
2022/05/17 08:10:20;;;;;;;6.65;3.50;;;18.90;85.20;;;;;;5018119;28;20023;-74
2022/05/17 08:12:46;;;;;;;9.43;3.60;;;19.10;83.20;;;;;;4998270;28;20034;-73
2022/05/17 08:15:12;;;;;;;6.88;2.75;;;19.20;82.40;;;;;;5009407;28;20523;-81
2022/05/17 08:17:38;;;;;;;6.88;2.63;;;19.30;82.20;;;;;;5009625;28;20034;-77
2022/05/17 08:20:09;;;;;;;9.45;2.70;;;19.40;82.00;;;;;;4996181;28;20030;-73
2022/05/17 08:22:39;;;;;;;5.28;2.30;;;19.50;81.20;;;;;;4997569;28;20049;-74
2022/05/17 08:27:51;;;;;;;8.40;2.40;;;19.70;77.00;;;;;;5008323;28;20113;-74
2022/05/17 08:30:19;;;;;;;6.72;2.10;;;19.80;77.30;;;;;;5007921;28;20092;-74
2022/05/17 08:36:01;;;;;;;5.82;2.10;;;19.80;77.00;;;;;;5009036;28;20096;-76
2022/05/17 08:38:33;;;;;;;8.57;1.95;;;19.90;78.10;;;;;;5007533;28;20048;-75
2022/05/17 08:41:05;;;;;;;6.25;1.90;;;20.00;74.80;;;;;;5032325;28;20105;-76
2022/05/17 08:43:49;;;;;;;6.97;2.13;;;19.90;74.20;;;;;;5022339;28;20579;-73
2022/05/17 08:46:19;;;;;;;8.00;1.88;;;20.00;76.40;;;;;;5008342;28;20119;-74
2022/05/17 08:48:48;;;;;;;;;;;20.00;74.70;;;;;;4991180;28;20045;-74
2022/05/17 08:51:17;;;;;;;8.02;2.25;;;20.20;76.40;;;;;;4991032;28;19905;-78
2022/05/17 08:53:45;;;;;;;7.60;2.35;;;20.30;76.00;;;;;;4989714;28;20125;-74
2022/05/17 08:56:14;;;;;;;7.93;2.22;;;20.40;74.30;;;;;;4989790;28;20031;-77
2022/05/17 08:58:45;;;;;;;6.73;2.00;;;20.50;74.40;;;;;;5006985;28;20040;-77
2022/05/17 09:01:25;;;;;;;6.13;1.80;;;20.60;75.10;;;;;;5010637;28;20437;-73
2022/05/17 09:03:59;;;;;;;;;;;20.80;74.20;;;;;;5010803;28;20140;-75
2022/05/17 09:07:11;;;;;;;7.13;2.08;;;21.00;72.60;;;;;;5011484;28;20358;-73
2022/05/17 09:09:56;;;;;;;7.97;2.45;;;20.90;73.30;;;;;;5003643;28;20076;-75
2022/05/17 09:12:30;;;;;;;7.57;2.30;;;20.90;71.80;;;;;;5001544;28;20069;-74
2022/05/17 09:15:00;;;;;;;8.95;2.85;;;21.00;72.70;;;;;;5009306;28;20084;-74
2022/05/17 09:17:27;;;;;;;;;;;21.00;72.90;;;;;;5011335;28;20025;-75
2022/05/17 09:19:53;;;;;;;5.70;2.20;;;21.10;74.10;;;;;;5010201;28;19968;-74
2022/05/17 09:22:20;;;;;;;6.50;2.38;;;21.20;73.40;;;;;;5007937;28;20033;-74
2022/05/17 09:24:52;;;;;;;7.50;2.20;;;21.30;73.00;;;;;;5042220;28;20026;-74
2022/05/17 09:27:34;;;;;;;6.38;2.40;;;21.50;73.70;;;;;;5010176;28;20487;-75
2022/05/17 09:30:27;;;;;;;7.45;2.63;;;21.50;70.60;;;;;;5010698;28;20022;-73
2022/05/17 09:33:03;;;;;;;6.90;2.25;;;21.40;72.20;;;;;;5010406;28;20037;-74
2022/05/17 09:35:28;;;;;;;6.60;2.30;;;21.50;71.60;;;;;;5041749;28;20030;-73
2022/05/17 09:37:58;;;;;;;8.38;2.20;;;21.50;71.60;;;;;;5024746;28;20030;-74
2022/05/17 09:40:40;;;;;;;12.65;2.70;;;21.70;71.00;;;;;;5041504;28;20375;-74
2022/05/17 09:43:11;;;;;;;9.35;2.28;;;21.90;70.90;;;;;;5009699;28;20030;-74
2022/05/17 09:45:46;;;;;;;7.28;2.28;;;22.00;68.90;;;;;;5028009;28;20026;-73
2022/05/17 09:48:24;;;;;;;6.28;2.00;;;21.90;68.80;;;;;;4990635;28;20031;-76
2022/05/17 09:53:46;;;;;;;7.70;2.10;;;22.00;69.00;;;;;;5010103;28;20052;-73
2022/05/17 09:56:13;;;;;;;7.35;2.00;;;22.00;69.10;;;;;;5008488;28;20104;-74
2022/05/17 09:58:42;;;;;;;9.30;2.35;;;22.10;69.00;;;;;;5040762;28;20037;-74
2022/05/17 10:01:17;;;;;;;8.57;2.55;;;22.10;69.60;;;;;;5009292;28;20721;-73
2022/05/17 10:04:17;;;;;;;7.28;2.33;;;22.20;69.00;;;;;;5023786;28;20073;-76
2022/05/17 10:06:46;;;;;;;5.05;2.00;;;22.20;67.10;;;;;;5004691;28;20053;-75
2022/05/17 10:09:33;;;;;;;9.63;2.67;;;22.10;67.80;;;;;;5008428;28;20030;-74
2022/05/17 10:12:09;;;;;;;7.13;2.17;;;22.20;68.50;;;;;;5007674;28;20694;-74
2022/05/17 10:14:46;;;;;;;6.60;2.67;;;22.30;68.60;;;;;;5005972;28;20022;-74
2022/05/17 10:17:35;;;;;;;8.25;2.42;;;22.50;67.00;;;;;;5007361;28;20116;-76
2022/05/17 10:20:27;;;;;;;5.82;1.95;;;22.50;67.00;;;;;;5007831;28;20058;-73
2022/05/17 10:23:14;;;;;;;5.50;2.03;;;22.60;67.30;;;;;;5027546;28;20104;-74
2022/05/17 10:25:53;;;;;;;6.38;1.88;;;22.70;66.00;;;;;;5006475;28;20042;-74
2022/05/17 10:28:30;;;;;;;7.88;2.38;;;22.60;66.50;;;;;;5008404;28;20046;-74
2022/05/17 10:31:03;;;;;;;6.07;1.88;;;22.70;65.30;;;;;;4989074;28;20126;-75
2022/05/17 10:33:39;;;;;;;6.88;1.95;;;22.80;64.70;;;;;;4987795;28;20034;-75
2022/05/17 10:36:23;;;;;;;9.75;2.00;;;22.90;65.70;;;;;;4989758;28;20034;-73
2022/05/17 10:39:11;;;;;;;6.57;1.90;;;23.00;64.70;;;;;;4998552;28;20022;-76
2022/05/17 10:41:37;;;;;;;6.40;2.00;;;23.10;64.70;;;;;;5007314;28;20056;-75
2022/05/17 10:44:03;;;;;;;6.93;2.20;;;23.20;64.70;;;;;;5023504;28;20179;-76
2022/05/17 10:46:31;;;;;;;6.45;1.98;;;23.30;62.80;;;;;;4998958;28;20133;-74
2022/05/17 10:49:06;;;;;;;7.78;2.00;;;23.40;63.70;;;;;;5006617;28;20037;-74
2022/05/17 10:51:46;;;;;;;7.28;2.25;;;23.30;64.50;;;;;;5007545;28;20034;-74
2022/05/17 10:54:29;;;;;;;7.35;1.80;;;23.30;62.80;;;;;;5029408;28;20040;-74
2022/05/17 10:57:06;;;;;;;4.53;1.40;;;23.50;63.90;;;;;;4993352;28;20054;-77
2022/05/17 10:59:35;;;;;;;6.32;1.63;;;23.60;63.90;;;;;;5006524;28;20550;-76
2022/05/17 11:02:06;;;;;;;6.05;1.75;;;23.90;62.40;;;;;;5005000;28;20531;-76
2022/05/17 11:04:57;;;;;;;6.50;2.00;;;23.90;61.60;;;;;;5005628;28;20096;-75
2022/05/17 11:07:49;;;;;;;6.43;1.90;;;24.00;61.50;;;;;;5002854;28;20123;-75
2022/05/17 11:10:33;;;;;;;7.03;1.90;;;24.20;60.40;;;;;;4995291;28;20046;-74
2022/05/17 11:13:15;;;;;;;4.72;1.52;;;24.10;61.10;;;;;;5004769;28;20439;-74
2022/05/17 11:16:05;;;;;;;6.95;1.60;;;24.10;60.00;;;;;;5008554;28;20439;-74
2022/05/17 11:18:51;;;;;;;5.35;1.95;;;24.20;59.90;;;;;;5012419;28;20042;-74
2022/05/17 11:21:23;;;;;;;6.57;1.60;;;24.00;59.60;;;;;;4997459;28;20061;-76
2022/05/17 11:23:56;;;;;;;6.22;1.75;;;24.10;59.00;;;;;;4995553;28;20504;-74
2022/05/17 11:27:16;;;;;;;6.78;1.45;;;24.80;58.00;;;;;;5011090;28;20057;-74
2022/05/17 11:29:50;;;;;;;5.95;1.50;;;27.70;53.60;;;;;;5007491;28;20046;-74
2022/05/17 11:33:02;;;;;;;6.03;1.70;;;29.70;47.10;;;;;;5008526;28;20109;-76
2022/05/17 11:35:30;;;;;;;7.90;1.70;;;30.10;44.70;;;;;;5008826;28;20038;-73
2022/05/17 11:37:56;;;;;;;4.73;1.80;;;29.50;44.60;;;;;;5008528;28;20028;-72
2022/05/17 11:40:43;;;;;;;6.90;1.85;;;28.30;45.70;;;;;;5007907;28;20034;-75
2022/05/17 11:45:56;;;;;;;5.72;1.58;;;26.80;49.70;;;;;;5005514;28;20040;-75
2022/05/17 11:48:42;;;;;;;6.72;1.63;;;26.30;49.90;;;;;;4999375;28;20038;-73
2022/05/17 11:51:08;;;;;;;8.02;1.92;;;26.20;50.90;;;;;;5008905;28;20022;-75
2022/05/17 11:53:43;;;;;;;7.75;1.70;;;26.00;51.60;;;;;;5008684;28;20507;-73
2022/05/17 11:56:26;;;;;;;5.32;1.27;;;25.90;51.60;;;;;;5013212;28;20038;-73
2022/05/17 11:58:54;;;;;;;5.65;1.45;;;25.90;49.90;;;;;;5004157;28;20034;-76
2022/05/17 12:01:29;;;;;;;5.85;1.88;;;26.30;50.50;;;;;;5006905;28;20042;-73
2022/05/17 12:04:00;;;;;;;5.05;1.48;;;26.30;48.50;;;;;;5023287;28;20129;-74
2022/05/17 12:06:38;;;;;;;2.60;1.08;;;26.20;49.30;;;;;;5008983;28;20065;-74
2022/05/17 12:09:25;;;;;;;4.93;1.20;;;25.90;47.90;;;;;;5010763;28;20072;-75
2022/05/17 12:12:23;;;;;;;6.82;1.30;;;25.60;47.50;;;;;;5000156;28;20034;-73
2022/05/17 12:15:18;;;;;;;7.35;1.65;;;25.30;48.30;;;;;;4994412;28;20022;-74
2022/05/17 12:17:46;;;;;;;7.85;1.50;;;25.10;48.50;;;;;;5004278;28;20125;-71
2022/05/17 12:20:25;;;;;;;6.87;1.40;;;24.90;49.10;;;;;;5006914;28;20038;-73
2022/05/17 12:22:54;;;;;;;4.35;1.20;;;24.90;48.80;;;;;;4991069;28;20038;-75
2022/05/17 12:25:34;;;;;;;3.85;1.10;;;25.00;48.50;;;;;;4991287;28;20037;-73
2022/05/17 12:28:01;;;;;;;5.15;1.27;;;25.00;47.90;;;;;;4986944;28;20805;-74
2022/05/17 12:33:18;;;;;;;4.65;1.02;;;24.90;46.30;;;;;;5008865;28;20037;-75
2022/05/17 12:35:45;;;;;;;5.18;1.20;;;25.30;44.40;;;;;;5008310;28;20045;-75
2022/05/17 12:43:47;;;;;;;8.85;1.52;;;25.80;44.40;;;;;;5008872;28;20601;-75
2022/05/17 12:46:23;;;;;;;5.38;1.13;;;25.70;45.30;;;;;;5001569;28;20501;-76
2022/05/17 12:48:50;;;;;;;5.03;1.17;;;25.50;44.10;;;;;;4990041;28;20117;-78
2022/05/17 12:51:19;;;;;;;4.05;1.10;;;25.40;43.70;;;;;;4989697;28;20497;-74
2022/05/17 12:53:47;;;;;;;4.47;1.00;;;25.10;43.60;;;;;;5000167;28;20042;-75
2022/05/17 12:56:32;;;;;;;4.03;1.10;;;25.00;43.70;;;;;;5009877;28;20038;-76
2022/05/17 12:59:01;;;;;;;5.03;1.00;;;24.90;41.20;;;;;;5024975;28;21122;-74
2022/05/17 13:01:35;;;;;;;;;;;24.80;39.60;;;;;;5010365;28;20064;-76
2022/05/17 13:04:09;;;;;;;3.97;0.93;;;24.80;41.50;;;;;;4991268;28;19921;-74
2022/05/17 13:06:38;;;;;;;2.90;0.93;;;24.90;41.20;;;;;;5021974;28;20042;-75
2022/05/17 13:09:06;;;;;;;5.20;1.05;;;25.00;40.00;;;;;;5021908;28;20432;-73
2022/05/17 13:11:32;;;;;;;4.30;1.20;;;24.90;41.80;;;;;;4997108;28;20045;-75
2022/05/17 13:14:10;;;;;;;6.95;1.10;;;24.80;39.30;;;;;;4998568;28;20096;-75
2022/05/17 13:16:43;;;;;;;3.00;0.93;;;24.80;39.80;;;;;;5019321;28;20029;-75
2022/05/17 13:19:13;;;;;;;5.68;1.05;;;24.80;42.10;;;;;;5004577;28;20026;-79
2022/05/17 13:21:48;;;;;;;4.30;1.02;;;24.70;39.60;;;;;;5006303;28;20039;-75